sensor_id;sensor_type;location;lat;lon;timestamp;temperature;humidity
22633;DHT22;11483;55.828;37.488;2022-09-09T00:11:13;7.40;99.90
22633;DHT22;11483;55.828;37.488;2022-09-09T00:13:51;7.30;99.90
22633;DHT22;11483;55.828;37.488;2022-09-09T00:16:35;7.40;99.90
22633;DHT22;11483;55.828;37.488;2022-09-09T00:19:41;7.40;99.90
22633;DHT22;11483;55.828;37.488;2022-09-09T00:31:59;7.40;99.90
22633;DHT22;11483;55.828;37.488;2022-09-09T00:35:18;7.40;99.90
22633;DHT22;11483;55.828;37.488;2022-09-09T00:37:48;7.40;99.90
22633;DHT22;11483;55.828;37.488;2022-09-09T00:40:33;7.40;99.90
22633;DHT22;11483;55.828;37.488;2022-09-09T00:43:19;7.30;99.90
22633;DHT22;11483;55.828;37.488;2022-09-09T00:51:16;7.30;99.90
22633;DHT22;11483;55.828;37.488;2022-09-09T00:54:12;7.30;99.90
22633;DHT22;11483;55.828;37.488;2022-09-09T00:56:51;7.30;99.90
22633;DHT22;11483;55.828;37.488;2022-09-09T00:59:44;7.30;99.90
22633;DHT22;11483;55.828;37.488;2022-09-09T01:02:40;7.30;99.90
22633;DHT22;11483;55.828;37.488;2022-09-09T01:05:33;7.30;99.90
22633;DHT22;11483;55.828;37.488;2022-09-09T01:08:02;7.30;99.90
22633;DHT22;11483;55.828;37.488;2022-09-09T01:10:52;7.20;99.90
22633;DHT22;11483;55.828;37.488;2022-09-09T01:13:25;7.20;99.90
22633;DHT22;11483;55.828;37.488;2022-09-09T01:15:53;7.20;99.90
22633;DHT22;11483;55.828;37.488;2022-09-09T01:18:23;7.10;99.90
22633;DHT22;11483;55.828;37.488;2022-09-09T01:21:30;7.10;99.90
22633;DHT22;11483;55.828;37.488;2022-09-09T01:26:37;7.10;99.90
22633;DHT22;11483;55.828;37.488;2022-09-09T01:29:09;7.00;99.90
22633;DHT22;11483;55.828;37.488;2022-09-09T01:31:39;7.00;99.90
22633;DHT22;11483;55.828;37.488;2022-09-09T01:34:14;7.00;99.90
22633;DHT22;11483;55.828;37.488;2022-09-09T01:39:13;7.00;99.90
22633;DHT22;11483;55.828;37.488;2022-09-09T01:41:39;7.00;99.90
22633;DHT22;11483;55.828;37.488;2022-09-09T01:44:05;6.90;99.90
22633;DHT22;11483;55.828;37.488;2022-09-09T01:46:33;6.90;99.90
22633;DHT22;11483;55.828;37.488;2022-09-09T01:49:03;6.90;99.90
22633;DHT22;11483;55.828;37.488;2022-09-09T01:51:42;6.90;99.90
22633;DHT22;11483;55.828;37.488;2022-09-09T01:54:09;6.90;99.90
22633;DHT22;11483;55.828;37.488;2022-09-09T02:02:11;6.80;99.90
22633;DHT22;11483;55.828;37.488;2022-09-09T02:04:42;6.80;99.90
22633;DHT22;11483;55.828;37.488;2022-09-09T02:07:30;6.80;99.90
22633;DHT22;11483;55.828;37.488;2022-09-09T02:15:29;6.90;99.90
22633;DHT22;11483;55.828;37.488;2022-09-09T02:17:57;6.90;99.90
22633;DHT22;11483;55.828;37.488;2022-09-09T02:20:24;6.80;99.90
22633;DHT22;11483;55.828;37.488;2022-09-09T02:22:53;6.90;99.90
22633;DHT22;11483;55.828;37.488;2022-09-09T02:25:22;6.90;99.90
22633;DHT22;11483;55.828;37.488;2022-09-09T02:27:50;6.80;99.90
22633;DHT22;11483;55.828;37.488;2022-09-09T02:30:18;6.80;99.90
22633;DHT22;11483;55.828;37.488;2022-09-09T02:32:46;6.70;99.90
22633;DHT22;11483;55.828;37.488;2022-09-09T02:35:17;6.70;99.90
22633;DHT22;11483;55.828;37.488;2022-09-09T02:37:46;6.70;99.90
22633;DHT22;11483;55.828;37.488;2022-09-09T02:40:14;6.60;99.90
22633;DHT22;11483;55.828;37.488;2022-09-09T02:42:41;6.50;99.90
22633;DHT22;11483;55.828;37.488;2022-09-09T02:45:10;6.50;99.90
22633;DHT22;11483;55.828;37.488;2022-09-09T02:50:34;6.50;99.90
22633;DHT22;11483;55.828;37.488;2022-09-09T02:53:26;6.50;99.90
22633;DHT22;11483;55.828;37.488;2022-09-09T02:56:04;6.50;99.90
22633;DHT22;11483;55.828;37.488;2022-09-09T02:58:30;6.50;99.90
22633;DHT22;11483;55.828;37.488;2022-09-09T03:00:57;6.50;99.90
22633;DHT22;11483;55.828;37.488;2022-09-09T03:03:23;6.50;99.90
22633;DHT22;11483;55.828;37.488;2022-09-09T03:05:50;6.50;99.90
22633;DHT22;11483;55.828;37.488;2022-09-09T03:08:16;6.40;99.90
22633;DHT22;11483;55.828;37.488;2022-09-09T03:10:42;6.40;99.90
22633;DHT22;11483;55.828;37.488;2022-09-09T03:13:08;6.30;99.90
22633;DHT22;11483;55.828;37.488;2022-09-09T03:15:35;6.30;99.90
22633;DHT22;11483;55.828;37.488;2022-09-09T03:18:01;6.30;99.90
22633;DHT22;11483;55.828;37.488;2022-09-09T03:20:29;6.30;99.90
22633;DHT22;11483;55.828;37.488;2022-09-09T03:22:55;6.30;99.90
22633;DHT22;11483;55.828;37.488;2022-09-09T03:25:22;6.30;99.90
22633;DHT22;11483;55.828;37.488;2022-09-09T03:27:50;6.30;99.90
22633;DHT22;11483;55.828;37.488;2022-09-09T03:30:22;6.30;99.90
22633;DHT22;11483;55.828;37.488;2022-09-09T03:32:48;6.30;99.90
22633;DHT22;11483;55.828;37.488;2022-09-09T03:35:14;6.30;99.90
22633;DHT22;11483;55.828;37.488;2022-09-09T03:37:44;6.30;99.90
22633;DHT22;11483;55.828;37.488;2022-09-09T03:40:10;6.30;99.90
22633;DHT22;11483;55.828;37.488;2022-09-09T03:42:37;6.30;99.90
22633;DHT22;11483;55.828;37.488;2022-09-09T03:45:05;6.20;99.90
22633;DHT22;11483;55.828;37.488;2022-09-09T03:47:31;6.30;99.90
22633;DHT22;11483;55.828;37.488;2022-09-09T03:49:57;6.30;99.90
22633;DHT22;11483;55.828;37.488;2022-09-09T03:52:22;6.30;99.90
22633;DHT22;11483;55.828;37.488;2022-09-09T03:54:53;6.30;99.90
22633;DHT22;11483;55.828;37.488;2022-09-09T03:57:19;6.30;99.90
22633;DHT22;11483;55.828;37.488;2022-09-09T03:59:46;6.40;99.90
22633;DHT22;11483;55.828;37.488;2022-09-09T04:02:11;6.40;99.90
22633;DHT22;11483;55.828;37.488;2022-09-09T04:04:37;6.50;99.90
22633;DHT22;11483;55.828;37.488;2022-09-09T04:07:04;6.50;99.90
22633;DHT22;11483;55.828;37.488;2022-09-09T04:09:32;6.50;99.90
22633;DHT22;11483;55.828;37.488;2022-09-09T04:11:59;6.50;99.90
22633;DHT22;11483;55.828;37.488;2022-09-09T04:14:24;6.60;99.90
22633;DHT22;11483;55.828;37.488;2022-09-09T04:16:56;6.50;99.90
22633;DHT22;11483;55.828;37.488;2022-09-09T04:19:22;6.70;99.90
22633;DHT22;11483;55.828;37.488;2022-09-09T04:21:48;6.70;99.90
22633;DHT22;11483;55.828;37.488;2022-09-09T04:24:16;6.80;99.90
22633;DHT22;11483;55.828;37.488;2022-09-09T04:26:41;6.80;99.90
22633;DHT22;11483;55.828;37.488;2022-09-09T04:29:07;6.80;99.90
22633;DHT22;11483;55.828;37.488;2022-09-09T04:31:33;6.80;99.90
22633;DHT22;11483;55.828;37.488;2022-09-09T04:33:59;6.90;99.90
22633;DHT22;11483;55.828;37.488;2022-09-09T04:36:31;7.00;99.90
22633;DHT22;11483;55.828;37.488;2022-09-09T04:38:57;7.00;99.90
22633;DHT22;11483;55.828;37.488;2022-09-09T04:41:23;7.10;99.90
22633;DHT22;11483;55.828;37.488;2022-09-09T04:43:50;7.10;99.90
22633;DHT22;11483;55.828;37.488;2022-09-09T04:46:15;7.20;99.90
22633;DHT22;11483;55.828;37.488;2022-09-09T04:48:43;7.20;99.90
22633;DHT22;11483;55.828;37.488;2022-09-09T04:51:12;7.30;99.90
22633;DHT22;11483;55.828;37.488;2022-09-09T04:53:38;7.30;99.90
22633;DHT22;11483;55.828;37.488;2022-09-09T04:58:35;7.50;99.90
22633;DHT22;11483;55.828;37.488;2022-09-09T05:01:16;7.60;99.90
22633;DHT22;11483;55.828;37.488;2022-09-09T05:03:51;7.60;99.90
22633;DHT22;11483;55.828;37.488;2022-09-09T05:06:20;7.60;99.90
22633;DHT22;11483;55.828;37.488;2022-09-09T05:08:47;7.70;99.90
22633;DHT22;11483;55.828;37.488;2022-09-09T05:11:22;7.80;99.90
22633;DHT22;11483;55.828;37.488;2022-09-09T05:13:50;7.90;99.90
22633;DHT22;11483;55.828;37.488;2022-09-09T05:16:17;7.90;99.90
22633;DHT22;11483;55.828;37.488;2022-09-09T05:18:43;8.00;99.90
22633;DHT22;11483;55.828;37.488;2022-09-09T05:21:11;8.10;99.90
22633;DHT22;11483;55.828;37.488;2022-09-09T05:23:37;8.20;99.90
22633;DHT22;11483;55.828;37.488;2022-09-09T05:26:04;8.30;99.90
22633;DHT22;11483;55.828;37.488;2022-09-09T05:28:29;8.30;99.90
22633;DHT22;11483;55.828;37.488;2022-09-09T05:31:00;8.30;99.90
22633;DHT22;11483;55.828;37.488;2022-09-09T05:33:27;8.40;99.90
22633;DHT22;11483;55.828;37.488;2022-09-09T05:36:03;8.50;99.90
22633;DHT22;11483;55.828;37.488;2022-09-09T05:38:30;8.50;99.90
22633;DHT22;11483;55.828;37.488;2022-09-09T05:40:58;8.50;99.90
22633;DHT22;11483;55.828;37.488;2022-09-09T05:43:24;8.60;99.90
22633;DHT22;11483;55.828;37.488;2022-09-09T05:46:11;8.70;99.90
22633;DHT22;11483;55.828;37.488;2022-09-09T05:48:39;8.70;99.90
22633;DHT22;11483;55.828;37.488;2022-09-09T05:51:22;8.80;99.90
22633;DHT22;11483;55.828;37.488;2022-09-09T05:53:50;8.90;99.90
22633;DHT22;11483;55.828;37.488;2022-09-09T05:56:19;9.00;99.90
22633;DHT22;11483;55.828;37.488;2022-09-09T05:58:46;9.00;99.90
22633;DHT22;11483;55.828;37.488;2022-09-09T06:01:20;9.00;99.90
22633;DHT22;11483;55.828;37.488;2022-09-09T06:03:47;9.10;99.90
22633;DHT22;11483;55.828;37.488;2022-09-09T06:06:16;9.20;99.90
22633;DHT22;11483;55.828;37.488;2022-09-09T06:08:50;9.20;99.90
22633;DHT22;11483;55.828;37.488;2022-09-09T06:11:21;9.30;99.90
22633;DHT22;11483;55.828;37.488;2022-09-09T06:13:48;9.40;99.90
22633;DHT22;11483;55.828;37.488;2022-09-09T06:16:18;9.40;99.90
22633;DHT22;11483;55.828;37.488;2022-09-09T06:18:44;9.50;99.90
22633;DHT22;11483;55.828;37.488;2022-09-09T06:21:19;9.60;99.90
22633;DHT22;11483;55.828;37.488;2022-09-09T06:23:46;9.70;99.90
22633;DHT22;11483;55.828;37.488;2022-09-09T06:26:24;9.60;99.90
22633;DHT22;11483;55.828;37.488;2022-09-09T06:28:52;9.60;99.90
22633;DHT22;11483;55.828;37.488;2022-09-09T06:31:20;9.70;99.90
22633;DHT22;11483;55.828;37.488;2022-09-09T06:33:48;9.70;99.90
22633;DHT22;11483;55.828;37.488;2022-09-09T06:36:29;9.80;99.90
22633;DHT22;11483;55.828;37.488;2022-09-09T06:38:55;9.90;99.90
22633;DHT22;11483;55.828;37.488;2022-09-09T06:41:25;10.20;99.90
22633;DHT22;11483;55.828;37.488;2022-09-09T06:43:52;10.40;99.90
22633;DHT22;11483;55.828;37.488;2022-09-09T06:46:20;10.40;99.90
22633;DHT22;11483;55.828;37.488;2022-09-09T06:48:53;10.50;99.90
22633;DHT22;11483;55.828;37.488;2022-09-09T06:51:22;10.80;99.90
22633;DHT22;11483;55.828;37.488;2022-09-09T06:53:53;10.80;99.90
22633;DHT22;11483;55.828;37.488;2022-09-09T06:56:34;10.90;99.90
22633;DHT22;11483;55.828;37.488;2022-09-09T06:59:02;10.90;99.90
22633;DHT22;11483;55.828;37.488;2022-09-09T07:01:34;11.10;99.90
22633;DHT22;11483;55.828;37.488;2022-09-09T07:04:00;11.40;99.90
22633;DHT22;11483;55.828;37.488;2022-09-09T07:06:46;11.60;99.90
22633;DHT22;11483;55.828;37.488;2022-09-09T07:09:14;11.60;99.90
22633;DHT22;11483;55.828;37.488;2022-09-09T07:11:42;11.70;99.90
22633;DHT22;11483;55.828;37.488;2022-09-09T07:14:09;11.90;99.90
22633;DHT22;11483;55.828;37.488;2022-09-09T07:16:40;12.00;99.90
22633;DHT22;11483;55.828;37.488;2022-09-09T07:19:07;12.30;99.90
22633;DHT22;11483;55.828;37.488;2022-09-09T07:21:33;12.60;99.90
22633;DHT22;11483;55.828;37.488;2022-09-09T07:24:00;12.90;99.90
22633;DHT22;11483;55.828;37.488;2022-09-09T07:26:29;12.80;99.90
22633;DHT22;11483;55.828;37.488;2022-09-09T07:28:55;12.50;99.90
22633;DHT22;11483;55.828;37.488;2022-09-09T07:31:33;12.80;99.90
22633;DHT22;11483;55.828;37.488;2022-09-09T07:36:59;13.30;99.90
22633;DHT22;11483;55.828;37.488;2022-09-09T07:39:25;12.40;99.90
22633;DHT22;11483;55.828;37.488;2022-09-09T07:41:51;13.40;99.90
22633;DHT22;11483;55.828;37.488;2022-09-09T07:44:19;13.40;99.90
22633;DHT22;11483;55.828;37.488;2022-09-09T07:46:47;13.50;99.90
22633;DHT22;11483;55.828;37.488;2022-09-09T07:49:13;13.60;99.90
22633;DHT22;11483;55.828;37.488;2022-09-09T07:51:40;13.70;99.90
22633;DHT22;11483;55.828;37.488;2022-09-09T07:54:07;14.10;99.90
22633;DHT22;11483;55.828;37.488;2022-09-09T07:56:34;14.40;99.90
22633;DHT22;11483;55.828;37.488;2022-09-09T07:59:01;14.60;99.90
22633;DHT22;11483;55.828;37.488;2022-09-09T08:01:28;14.30;99.90
22633;DHT22;11483;55.828;37.488;2022-09-09T08:03:59;14.10;99.90
22633;DHT22;11483;55.828;37.488;2022-09-09T08:06:28;14.10;99.90
22633;DHT22;11483;55.828;37.488;2022-09-09T08:08:55;14.00;99.90
22633;DHT22;11483;55.828;37.488;2022-09-09T08:11:22;13.90;99.90
22633;DHT22;11483;55.828;37.488;2022-09-09T08:13:50;13.80;99.90
22633;DHT22;11483;55.828;37.488;2022-09-09T08:16:20;13.90;99.90
22633;DHT22;11483;55.828;37.488;2022-09-09T08:18:50;14.10;99.90
22633;DHT22;11483;55.828;37.488;2022-09-09T08:21:25;14.70;99.90
22633;DHT22;11483;55.828;37.488;2022-09-09T08:23:55;16.20;99.90
22633;DHT22;11483;55.828;37.488;2022-09-09T08:26:27;18.50;99.90
22633;DHT22;11483;55.828;37.488;2022-09-09T08:28:56;20.30;92.90
22633;DHT22;11483;55.828;37.488;2022-09-09T08:31:27;21.70;89.00
22633;DHT22;11483;55.828;37.488;2022-09-09T08:33:55;23.90;82.70
22633;DHT22;11483;55.828;37.488;2022-09-09T08:36:22;25.00;71.70
22633;DHT22;11483;55.828;37.488;2022-09-09T08:38:52;22.60;68.60
22633;DHT22;11483;55.828;37.488;2022-09-09T08:43:58;18.20;78.30
22633;DHT22;11483;55.828;37.488;2022-09-09T08:46:29;17.30;85.90
22633;DHT22;11483;55.828;37.488;2022-09-09T08:49:02;17.10;86.10
22633;DHT22;11483;55.828;37.488;2022-09-09T08:51:32;16.00;89.40
22633;DHT22;11483;55.828;37.488;2022-09-09T08:54:00;15.40;92.00
22633;DHT22;11483;55.828;37.488;2022-09-09T08:56:28;15.00;92.50
22633;DHT22;11483;55.828;37.488;2022-09-09T08:58:56;14.30;94.80
22633;DHT22;11483;55.828;37.488;2022-09-09T09:12:30;14.50;99.90
22633;DHT22;11483;55.828;37.488;2022-09-09T09:14:59;15.60;96.70
22633;DHT22;11483;55.828;37.488;2022-09-09T09:17:27;15.30;95.90
22633;DHT22;11483;55.828;37.488;2022-09-09T09:20:05;15.10;96.10
22633;DHT22;11483;55.828;37.488;2022-09-09T09:25:39;14.60;96.80
22633;DHT22;11483;55.828;37.488;2022-09-09T09:28:17;14.50;97.50
22633;DHT22;11483;55.828;37.488;2022-09-09T09:30:54;14.80;96.80
22633;DHT22;11483;55.828;37.488;2022-09-09T09:33:49;15.50;96.20
22633;DHT22;11483;55.828;37.488;2022-09-09T09:36:16;17.40;94.20
22633;DHT22;11483;55.828;37.488;2022-09-09T09:39:00;18.80;92.20
22633;DHT22;11483;55.828;37.488;2022-09-09T09:41:31;18.80;89.70
22633;DHT22;11483;55.828;37.488;2022-09-09T09:43:58;18.40;88.60
22633;DHT22;11483;55.828;37.488;2022-09-09T09:46:25;18.30;88.90
22633;DHT22;11483;55.828;37.488;2022-09-09T09:49:03;17.80;89.50
22633;DHT22;11483;55.828;37.488;2022-09-09T09:51:32;17.00;90.70
22633;DHT22;11483;55.828;37.488;2022-09-09T09:56:39;14.80;95.10
22633;DHT22;11483;55.828;37.488;2022-09-09T09:59:18;14.40;96.50
22633;DHT22;11483;55.828;37.488;2022-09-09T10:01:44;14.40;96.50
22633;DHT22;11483;55.828;37.488;2022-09-09T10:04:22;14.30;96.30
22633;DHT22;11483;55.828;37.488;2022-09-09T10:06:51;15.20;96.50
22633;DHT22;11483;55.828;37.488;2022-09-09T10:09:24;16.50;96.20
22633;DHT22;11483;55.828;37.488;2022-09-09T10:12:11;17.00;93.40
22633;DHT22;11483;55.828;37.488;2022-09-09T10:20:58;16.40;93.10
22633;DHT22;11483;55.828;37.488;2022-09-09T10:26:18;15.60;94.60
22633;DHT22;11483;55.828;37.488;2022-09-09T10:29:29;15.50;95.40
22633;DHT22;11483;55.828;37.488;2022-09-09T10:42:42;23.40;77.70
22633;DHT22;11483;55.828;37.488;2022-09-09T10:45:29;25.00;68.70
22633;DHT22;11483;55.828;37.488;2022-09-09T10:48:05;25.70;62.80
22633;DHT22;11483;55.828;37.488;2022-09-09T10:56:20;26.60;56.50
22633;DHT22;11483;55.828;37.488;2022-09-09T11:01:31;25.40;55.60
22633;DHT22;11483;55.828;37.488;2022-09-09T11:04:05;24.40;56.70
22633;DHT22;11483;55.828;37.488;2022-09-09T11:06:40;24.60;58.20
22633;DHT22;11483;55.828;37.488;2022-09-09T11:09:22;23.20;58.80
22633;DHT22;11483;55.828;37.488;2022-09-09T11:11:53;22.00;60.40
22633;DHT22;11483;55.828;37.488;2022-09-09T11:14:22;20.10;63.40
22633;DHT22;11483;55.828;37.488;2022-09-09T11:16:53;18.40;69.80
22633;DHT22;11483;55.828;37.488;2022-09-09T11:19:31;17.60;73.90
22633;DHT22;11483;55.828;37.488;2022-09-09T11:22:00;16.80;77.90
22633;DHT22;11483;55.828;37.488;2022-09-09T11:24:29;18.30;76.30
22633;DHT22;11483;55.828;37.488;2022-09-09T11:26:58;19.20;74.60
22633;DHT22;11483;55.828;37.488;2022-09-09T11:37:39;16.30;81.60
22633;DHT22;11483;55.828;37.488;2022-09-09T11:40:24;17.20;80.60
22633;DHT22;11483;55.828;37.488;2022-09-09T11:45:40;21.90;72.10
22633;DHT22;11483;55.828;37.488;2022-09-09T11:48:32;23.50;67.80
22633;DHT22;11483;55.828;37.488;2022-09-09T11:53:34;23.50;60.60
22633;DHT22;11483;55.828;37.488;2022-09-09T11:56:12;23.40;59.10
22633;DHT22;11483;55.828;37.488;2022-09-09T11:58:44;23.00;60.80
22633;DHT22;11483;55.828;37.488;2022-09-09T12:04:26;20.10;66.50
22633;DHT22;11483;55.828;37.488;2022-09-09T12:06:58;19.90;68.30
22633;DHT22;11483;55.828;37.488;2022-09-09T12:12:05;19.30;68.80
22633;DHT22;11483;55.828;37.488;2022-09-09T12:19:43;17.60;72.90
22633;DHT22;11483;55.828;37.488;2022-09-09T12:27:34;16.50;77.50
22633;DHT22;11483;55.828;37.488;2022-09-09T12:30:10;15.90;81.60
22633;DHT22;11483;55.828;37.488;2022-09-09T12:32:37;15.70;81.70
22633;DHT22;11483;55.828;37.488;2022-09-09T12:35:11;15.40;82.30
22633;DHT22;11483;55.828;37.488;2022-09-09T12:37:49;15.10;82.50
22633;DHT22;11483;55.828;37.488;2022-09-09T12:40:28;14.90;82.20
22633;DHT22;11483;55.828;37.488;2022-09-09T12:42:54;15.90;80.40
22633;DHT22;11483;55.828;37.488;2022-09-09T12:45:23;17.40;78.80
22633;DHT22;11483;55.828;37.488;2022-09-09T12:48:10;19.00;76.30
22633;DHT22;11483;55.828;37.488;2022-09-09T12:50:51;20.70;73.40
22633;DHT22;11483;55.828;37.488;2022-09-09T12:55:59;20.80;69.20
22633;DHT22;11483;55.828;37.488;2022-09-09T12:58:29;21.70;67.20
22633;DHT22;11483;55.828;37.488;2022-09-09T13:00:59;21.70;66.80
22633;DHT22;11483;55.828;37.488;2022-09-09T13:03:26;20.90;66.20
22633;DHT22;11483;55.828;37.488;2022-09-09T13:05:54;19.80;67.90
22633;DHT22;11483;55.828;37.488;2022-09-09T13:08:24;19.60;69.20
22633;DHT22;11483;55.828;37.488;2022-09-09T13:11:04;20.30;69.10
22633;DHT22;11483;55.828;37.488;2022-09-09T13:13:40;20.80;67.10
22633;DHT22;11483;55.828;37.488;2022-09-09T13:16:22;21.30;65.50
22633;DHT22;11483;55.828;37.488;2022-09-09T13:18:50;21.60;66.40
22633;DHT22;11483;55.828;37.488;2022-09-09T13:21:40;21.80;66.40
22633;DHT22;11483;55.828;37.488;2022-09-09T13:24:20;21.50;67.40
22633;DHT22;11483;55.828;37.488;2022-09-09T13:26:59;22.10;64.70
22633;DHT22;11483;55.828;37.488;2022-09-09T13:29:28;22.70;65.00
22633;DHT22;11483;55.828;37.488;2022-09-09T13:31:54;23.00;64.00
22633;DHT22;11483;55.828;37.488;2022-09-09T13:34:31;23.60;63.10
22633;DHT22;11483;55.828;37.488;2022-09-09T13:37:03;24.40;61.10
22633;DHT22;11483;55.828;37.488;2022-09-09T13:39:33;24.20;60.50
22633;DHT22;11483;55.828;37.488;2022-09-09T13:42:00;24.20;60.70
22633;DHT22;11483;55.828;37.488;2022-09-09T13:44:31;24.70;60.70
22633;DHT22;11483;55.828;37.488;2022-09-09T13:47:21;24.70;58.70
22633;DHT22;11483;55.828;37.488;2022-09-09T13:49:48;23.80;59.00
22633;DHT22;11483;55.828;37.488;2022-09-09T13:52:16;22.30;60.20
22633;DHT22;11483;55.828;37.488;2022-09-09T13:54:46;20.90;63.30
22633;DHT22;11483;55.828;37.488;2022-09-09T13:57:16;20.70;65.50
22633;DHT22;11483;55.828;37.488;2022-09-09T13:59:44;21.10;64.80
22633;DHT22;11483;55.828;37.488;2022-09-09T14:02:09;21.40;62.50
22633;DHT22;11483;55.828;37.488;2022-09-09T14:04:35;21.70;62.70
22633;DHT22;11483;55.828;37.488;2022-09-09T14:07:02;21.40;62.20
22633;DHT22;11483;55.828;37.488;2022-09-09T14:09:31;20.90;63.40
22633;DHT22;11483;55.828;37.488;2022-09-09T14:11:57;20.60;64.30
22633;DHT22;11483;55.828;37.488;2022-09-09T14:14:23;20.80;64.40
22633;DHT22;11483;55.828;37.488;2022-09-09T14:16:48;20.70;64.30
22633;DHT22;11483;55.828;37.488;2022-09-09T14:19:14;20.70;64.90
22633;DHT22;11483;55.828;37.488;2022-09-09T14:21:40;20.80;63.60
22633;DHT22;11483;55.828;37.488;2022-09-09T14:24:06;20.90;64.00
22633;DHT22;11483;55.828;37.488;2022-09-09T14:26:31;20.60;63.60
22633;DHT22;11483;55.828;37.488;2022-09-09T14:28:58;20.60;65.00
22633;DHT22;11483;55.828;37.488;2022-09-09T14:31:26;20.70;64.10
22633;DHT22;11483;55.828;37.488;2022-09-09T14:33:52;19.90;65.50
22633;DHT22;11483;55.828;37.488;2022-09-09T14:36:19;19.40;66.60
22633;DHT22;11483;55.828;37.488;2022-09-09T14:38:45;18.70;67.60
22633;DHT22;11483;55.828;37.488;2022-09-09T14:41:16;18.20;69.70
22633;DHT22;11483;55.828;37.488;2022-09-09T14:43:42;18.00;70.60
22633;DHT22;11483;55.828;37.488;2022-09-09T14:46:13;18.00;71.00
22633;DHT22;11483;55.828;37.488;2022-09-09T14:48:39;18.40;71.80
22633;DHT22;11483;55.828;37.488;2022-09-09T14:51:11;18.50;72.00
22633;DHT22;11483;55.828;37.488;2022-09-09T14:53:39;18.30;69.30
22633;DHT22;11483;55.828;37.488;2022-09-09T14:56:15;18.00;70.30
22633;DHT22;11483;55.828;37.488;2022-09-09T14:58:42;17.40;70.20
22633;DHT22;11483;55.828;37.488;2022-09-09T15:01:11;17.00;71.50
22633;DHT22;11483;55.828;37.488;2022-09-09T15:03:38;16.80;72.80
22633;DHT22;11483;55.828;37.488;2022-09-09T15:06:06;17.20;72.60
22633;DHT22;11483;55.828;37.488;2022-09-09T15:08:32;17.80;71.90
22633;DHT22;11483;55.828;37.488;2022-09-09T15:11:02;18.10;70.70
22633;DHT22;11483;55.828;37.488;2022-09-09T15:13:29;17.80;71.10
22633;DHT22;11483;55.828;37.488;2022-09-09T15:15:55;17.70;70.90
22633;DHT22;11483;55.828;37.488;2022-09-09T15:18:21;17.20;70.90
22633;DHT22;11483;55.828;37.488;2022-09-09T15:20:47;16.80;71.90
22633;DHT22;11483;55.828;37.488;2022-09-09T15:23:14;16.40;73.00
22633;DHT22;11483;55.828;37.488;2022-09-09T15:25:53;16.10;74.40
22633;DHT22;11483;55.828;37.488;2022-09-09T15:28:19;16.10;75.40
22633;DHT22;11483;55.828;37.488;2022-09-09T15:30:49;16.10;75.50
22633;DHT22;11483;55.828;37.488;2022-09-09T15:33:15;16.20;76.30
22633;DHT22;11483;55.828;37.488;2022-09-09T15:35:41;16.40;76.50
22633;DHT22;11483;55.828;37.488;2022-09-09T15:38:07;16.50;76.30
22633;DHT22;11483;55.828;37.488;2022-09-09T15:40:33;16.40;75.60
22633;DHT22;11483;55.828;37.488;2022-09-09T15:42:59;16.20;75.30
22633;DHT22;11483;55.828;37.488;2022-09-09T15:45:25;15.90;76.60
22633;DHT22;11483;55.828;37.488;2022-09-09T15:47:52;15.90;76.80
22633;DHT22;11483;55.828;37.488;2022-09-09T15:50:18;15.70;78.30
22633;DHT22;11483;55.828;37.488;2022-09-09T15:52:44;15.50;78.50
22633;DHT22;11483;55.828;37.488;2022-09-09T15:55:10;15.40;79.70
22633;DHT22;11483;55.828;37.488;2022-09-09T15:57:36;15.10;80.30
22633;DHT22;11483;55.828;37.488;2022-09-09T16:00:03;14.90;81.70
22633;DHT22;11483;55.828;37.488;2022-09-09T16:02:30;14.60;81.40
22633;DHT22;11483;55.828;37.488;2022-09-09T16:04:56;14.30;83.30
22633;DHT22;11483;55.828;37.488;2022-09-09T16:07:22;14.10;86.40
22633;DHT22;11483;55.828;37.488;2022-09-09T16:09:48;13.70;89.00
22633;DHT22;11483;55.828;37.488;2022-09-09T16:12:16;13.60;88.20
22633;DHT22;11483;55.828;37.488;2022-09-09T16:14:42;13.30;91.00
22633;DHT22;11483;55.828;37.488;2022-09-09T16:17:08;13.10;91.00
22633;DHT22;11483;55.828;37.488;2022-09-09T16:19:34;12.90;92.50
22633;DHT22;11483;55.828;37.488;2022-09-09T16:22:00;12.70;93.70
22633;DHT22;11483;55.828;37.488;2022-09-09T16:24:27;12.60;93.60
22633;DHT22;11483;55.828;37.488;2022-09-09T16:26:54;12.40;94.00
22633;DHT22;11483;55.828;37.488;2022-09-09T16:29:21;12.40;94.80
22633;DHT22;11483;55.828;37.488;2022-09-09T16:31:47;12.20;95.50
22633;DHT22;11483;55.828;37.488;2022-09-09T16:34:14;12.10;97.60
22633;DHT22;11483;55.828;37.488;2022-09-09T16:36:42;11.90;98.30
22633;DHT22;11483;55.828;37.488;2022-09-09T16:39:10;11.90;99.00
22633;DHT22;11483;55.828;37.488;2022-09-09T16:41:37;11.80;99.00
22633;DHT22;11483;55.828;37.488;2022-09-09T16:44:06;11.70;99.90
22633;DHT22;11483;55.828;37.488;2022-09-09T16:46:36;11.60;99.90
22633;DHT22;11483;55.828;37.488;2022-09-09T16:49:06;11.50;99.90
22633;DHT22;11483;55.828;37.488;2022-09-09T16:51:46;11.40;99.90
22633;DHT22;11483;55.828;37.488;2022-09-09T16:54:13;11.30;99.90
22633;DHT22;11483;55.828;37.488;2022-09-09T16:56:41;11.30;99.90
22633;DHT22;11483;55.828;37.488;2022-09-09T16:59:11;11.20;99.90
22633;DHT22;11483;55.828;37.488;2022-09-09T17:01:39;11.20;99.90
22633;DHT22;11483;55.828;37.488;2022-09-09T17:04:11;11.10;99.90
22633;DHT22;11483;55.828;37.488;2022-09-09T17:06:41;11.10;99.90
22633;DHT22;11483;55.828;37.488;2022-09-09T17:09:09;11.00;99.90
22633;DHT22;11483;55.828;37.488;2022-09-09T17:11:36;10.90;99.90
22633;DHT22;11483;55.828;37.488;2022-09-09T17:14:03;10.90;99.90
22633;DHT22;11483;55.828;37.488;2022-09-09T17:16:31;10.90;99.90
22633;DHT22;11483;55.828;37.488;2022-09-09T17:18:58;10.90;99.90
22633;DHT22;11483;55.828;37.488;2022-09-09T17:21:25;10.90;99.90
22633;DHT22;11483;55.828;37.488;2022-09-09T17:23:52;10.90;99.90
22633;DHT22;11483;55.828;37.488;2022-09-09T17:26:21;10.90;99.90
22633;DHT22;11483;55.828;37.488;2022-09-09T17:28:47;10.90;99.90
22633;DHT22;11483;55.828;37.488;2022-09-09T17:31:18;10.90;99.90
22633;DHT22;11483;55.828;37.488;2022-09-09T17:33:46;10.80;99.90
22633;DHT22;11483;55.828;37.488;2022-09-09T17:36:50;10.80;99.90
22633;DHT22;11483;55.828;37.488;2022-09-09T17:39:09;10.80;99.90
22633;DHT22;11483;55.828;37.488;2022-09-09T17:41:37;10.70;99.90
22633;DHT22;11483;55.828;37.488;2022-09-09T17:44:04;10.70;99.90
22633;DHT22;11483;55.828;37.488;2022-09-09T17:46:36;10.70;99.90
22633;DHT22;11483;55.828;37.488;2022-09-09T17:49:08;10.60;99.90
22633;DHT22;11483;55.828;37.488;2022-09-09T17:51:35;10.60;99.90
22633;DHT22;11483;55.828;37.488;2022-09-09T17:54:07;10.60;99.90